Time;durP1;ratioP1;P1;durP2;ratioP2;P2;SDS_P1;SDS_P2;PMS_P1;PMS_P2;Temp;Humidity;BMP_temperature;BMP_pressure;BME280_temperature;BME280_humidity;BME280_pressure;Samples;Min_cycle;Max_cycle;Signal;HPM_P1;HPM_P2
2023/09/09 00:00:30;;;;;;;5.30;4.65;;;25.20;67.00;;;;;;4942340;28;91133;-87
2023/09/09 00:02:56;;;;;;;6.57;4.70;;;25.20;67.10;;;;;;4962063;28;87100;-86
2023/09/09 00:05:21;;;;;;;5.65;4.70;;;25.20;67.10;;;;;;4957230;28;88113;-87
2023/09/09 00:07:47;;;;;;;5.45;4.90;;;25.20;67.00;;;;;;4960954;28;88220;-86
2023/09/09 00:10:12;;;;;;;5.43;4.43;;;25.20;67.00;;;;;;4959866;28;88400;-87
2023/09/09 00:12:38;;;;;;;5.35;4.30;;;25.20;66.90;;;;;;4957420;28;87640;-88
2023/09/09 00:15:05;;;;;;;4.97;4.28;;;25.20;67.20;;;;;;4959702;28;86573;-86
2023/09/09 00:17:31;;;;;;;6.40;4.40;;;25.20;66.80;;;;;;4961819;28;87882;-86
2023/09/09 00:19:57;;;;;;;4.90;4.20;;;25.20;66.90;;;;;;4941301;28;90790;-87
2023/09/09 00:22:22;;;;;;;6.18;4.57;;;25.20;66.80;;;;;;4955568;28;89092;-86
2023/09/09 00:24:48;;;;;;;8.70;4.80;;;25.20;67.00;;;;;;4960246;28;87444;-87
2023/09/09 00:27:13;;;;;;;5.00;4.07;;;25.20;67.00;;;;;;4922183;28;89171;-86
2023/09/09 00:29:39;;;;;;;5.82;4.32;;;25.20;66.90;;;;;;4920553;28;89712;-86
2023/09/09 00:32:05;;;;;;;5.65;4.30;;;25.20;66.90;;;;;;4919928;28;87858;-87
2023/09/09 00:34:33;;;;;;;4.65;4.10;;;25.20;66.70;;;;;;4939549;28;87668;-86
2023/09/09 00:36:58;;;;;;;5.93;4.55;;;25.20;66.90;;;;;;4956897;28;88010;-85
2023/09/09 00:39:24;;;;;;;5.68;4.35;;;25.20;66.80;;;;;;4959152;28;87385;-85
2023/09/09 00:41:50;;;;;;;5.35;4.43;;;25.20;66.80;;;;;;4961525;28;87604;-86
2023/09/09 00:44:15;;;;;;;6.75;4.18;;;25.20;67.00;;;;;;4955760;28;88187;-87
2023/09/09 00:46:42;;;;;;;5.60;4.70;;;25.20;67.00;;;;;;4953530;28;88418;-86
2023/09/09 00:49:09;;;;;;;5.63;4.28;;;25.20;67.30;;;;;;4959991;28;88619;-85
2023/09/09 00:51:37;;;;;;;5.18;4.22;;;25.20;67.10;;;;;;4939723;28;88056;-86
2023/09/09 00:54:03;;;;;;;6.45;4.68;;;25.20;67.00;;;;;;4961064;28;88086;-86
2023/09/09 00:56:32;;;;;;;4.35;3.90;;;25.20;66.80;;;;;;4957157;28;87423;-86
2023/09/09 00:58:58;;;;;;;4.53;4.00;;;25.20;66.90;;;;;;4957947;28;88609;-85
2023/09/09 01:01:24;;;;;;;5.45;4.30;;;25.20;67.00;;;;;;4956260;28;88014;-86
2023/09/09 01:03:53;;;;;;;5.13;3.88;;;25.20;67.00;;;;;;4957289;28;87046;-86
2023/09/09 01:06:20;;;;;;;4.80;4.00;;;25.20;67.20;;;;;;4940396;28;91459;-86
2023/09/09 01:08:46;;;;;;;4.88;4.38;;;25.20;67.10;;;;;;4958049;28;87675;-86
2023/09/09 01:11:12;;;;;;;4.47;4.00;;;25.20;66.90;;;;;;4955604;28;88941;-86
2023/09/09 01:13:37;;;;;;;5.10;4.00;;;25.10;66.80;;;;;;4941044;28;90327;-89
2023/09/09 01:16:04;;;;;;;4.88;4.22;;;25.10;66.70;;;;;;4956905;28;87330;-86
2023/09/09 01:18:31;;;;;;;6.40;4.38;;;25.10;66.80;;;;;;4957961;28;87700;-87
2023/09/09 01:21:08;;;;;;;7.38;4.10;;;25.10;66.80;;;;;;4957576;28;87698;-87
2023/09/09 01:23:35;;;;;;;6.00;3.92;;;25.10;66.80;;;;;;4938946;28;88701;-86
2023/09/09 01:26:00;;;;;;;5.10;4.03;;;25.10;66.80;;;;;;4958080;28;88380;-86
2023/09/09 01:28:26;;;;;;;4.80;4.18;;;25.10;66.70;;;;;;4939870;28;90865;-86
2023/09/09 01:30:52;;;;;;;7.47;4.70;;;25.10;66.70;;;;;;4956332;28;87525;-86
2023/09/09 01:33:18;;;;;;;5.00;4.22;;;25.10;66.70;;;;;;4958785;28;87777;-88
2023/09/09 01:35:46;;;;;;;5.07;3.80;;;25.10;66.70;;;;;;4943455;28;91728;-86
2023/09/09 01:38:12;;;;;;;5.22;3.83;;;25.10;66.60;;;;;;4957019;28;88467;-87
2023/09/09 01:40:38;;;;;;;4.32;3.92;;;25.10;66.80;;;;;;4956419;28;87699;-87
2023/09/09 01:43:03;;;;;;;4.70;3.83;;;25.10;66.80;;;;;;4958733;28;87429;-86
2023/09/09 01:45:29;;;;;;;4.38;3.83;;;25.10;66.60;;;;;;4942099;28;90249;-86
2023/09/09 01:47:55;;;;;;;4.80;3.83;;;25.10;66.70;;;;;;4957353;28;88057;-87
2023/09/09 01:50:21;;;;;;;5.40;4.45;;;25.10;67.10;;;;;;4937321;28;87610;-86
2023/09/09 01:52:46;;;;;;;4.35;3.50;;;25.10;66.70;;;;;;4956851;28;86890;-87
2023/09/09 01:55:12;;;;;;;6.53;3.88;;;25.10;66.70;;;;;;4960094;28;89609;-86
2023/09/09 01:57:38;;;;;;;4.57;3.95;;;25.10;66.70;;;;;;4955331;28;87833;-86
2023/09/09 02:00:07;;;;;;;5.88;4.30;;;25.10;66.80;;;;;;4936094;28;88275;-86
2023/09/09 02:02:33;;;;;;;4.20;3.80;;;25.10;67.00;;;;;;4957636;28;87985;-86
2023/09/09 02:04:58;;;;;;;5.15;4.40;;;25.10;66.90;;;;;;4957711;28;88242;-86
2023/09/09 02:07:24;;;;;;;5.07;4.20;;;25.10;66.60;;;;;;4939596;28;89168;-86
2023/09/09 02:09:49;;;;;;;4.80;4.07;;;25.10;66.90;;;;;;4961363;28;87784;-86
2023/09/09 02:12:15;;;;;;;5.90;4.13;;;25.10;66.90;;;;;;4959124;28;87411;-86
2023/09/09 02:14:41;;;;;;;4.68;4.15;;;25.10;66.90;;;;;;4955898;28;88154;-86
2023/09/09 02:17:07;;;;;;;4.30;3.50;;;25.10;66.80;;;;;;4938886;28;90753;-87
2023/09/09 02:19:33;;;;;;;4.93;3.75;;;25.10;66.60;;;;;;4954506;28;87445;-87
2023/09/09 02:21:59;;;;;;;5.60;4.13;;;25.10;66.80;;;;;;4958425;28;90120;-87
2023/09/09 02:24:24;;;;;;;4.13;3.72;;;25.10;66.80;;;;;;4956098;28;88764;-86
2023/09/09 02:26:50;;;;;;;4.95;3.90;;;25.10;66.80;;;;;;4937368;28;91054;-86
2023/09/09 02:29:15;;;;;;;4.35;3.88;;;25.10;66.90;;;;;;4958004;28;87160;-86
2023/09/09 02:31:41;;;;;;;4.03;3.63;;;25.00;66.80;;;;;;4953732;28;88709;-87
2023/09/09 02:34:07;;;;;;;4.03;3.50;;;25.00;66.60;;;;;;4934962;28;90578;-86
2023/09/09 02:36:32;;;;;;;4.40;3.55;;;25.00;66.80;;;;;;4954787;28;88040;-87
2023/09/09 02:38:58;;;;;;;3.33;3.03;;;25.00;66.60;;;;;;4957222;28;87690;-87
2023/09/09 02:41:23;;;;;;;4.22;3.72;;;25.00;66.80;;;;;;4957501;28;87495;-86
2023/09/09 02:43:49;;;;;;;4.57;3.70;;;25.00;66.80;;;;;;4939544;28;87634;-86
2023/09/09 02:46:15;;;;;;;4.15;3.75;;;25.00;66.90;;;;;;4954789;28;89782;-86
2023/09/09 02:48:40;;;;;;;4.53;4.05;;;25.00;66.90;;;;;;4959076;28;88112;-86
2023/09/09 02:51:06;;;;;;;4.95;4.10;;;25.00;67.00;;;;;;4953783;28;87149;-86
2023/09/09 02:53:32;;;;;;;4.97;4.00;;;25.00;67.20;;;;;;4938716;28;93123;-86
2023/09/09 02:55:57;;;;;;;4.55;4.13;;;25.00;67.30;;;;;;4954902;28;87818;-87
2023/09/09 02:58:23;;;;;;;4.30;3.88;;;25.00;67.10;;;;;;4954563;28;87344;-86
2023/09/09 03:00:48;;;;;;;4.35;3.92;;;25.00;67.10;;;;;;4955606;28;87586;-86
2023/09/09 03:03:17;;;;;;;5.60;4.05;;;25.00;66.90;;;;;;4937468;28;90549;-87
2023/09/09 03:05:43;;;;;;;3.90;3.50;;;25.00;66.70;;;;;;4936827;28;88923;-86
2023/09/09 03:08:09;;;;;;;4.47;3.75;;;25.00;66.70;;;;;;4954208;28;86838;-86
2023/09/09 03:10:34;;;;;;;4.22;3.72;;;25.00;66.80;;;;;;4936560;28;87656;-86
2023/09/09 03:13:00;;;;;;;5.60;4.28;;;25.00;66.90;;;;;;4938456;28;88864;-87
2023/09/09 03:15:25;;;;;;;5.38;4.13;;;25.00;66.70;;;;;;4938602;28;91525;-86
2023/09/09 03:17:51;;;;;;;5.10;4.53;;;25.00;66.70;;;;;;4941045;28;87492;-86
2023/09/09 03:20:16;;;;;;;4.13;3.65;;;24.90;66.60;;;;;;4953641;28;87852;-86
2023/09/09 03:22:42;;;;;;;5.93;4.25;;;25.00;66.90;;;;;;4959633;28;88089;-86
2023/09/09 03:25:08;;;;;;;5.50;3.80;;;25.00;66.90;;;;;;4954563;28;87764;-86
2023/09/09 03:27:34;;;;;;;4.97;4.43;;;24.90;66.80;;;;;;4952315;28;88144;-86
2023/09/09 03:30:01;;;;;;;4.45;3.58;;;24.90;66.70;;;;;;4956855;28;87003;-86
2023/09/09 03:32:26;;;;;;;4.30;3.90;;;25.00;67.00;;;;;;4955218;28;88849;-86
2023/09/09 03:34:52;;;;;;;4.70;4.20;;;24.90;67.00;;;;;;4941311;28;87426;-86
2023/09/09 03:37:18;;;;;;;4.30;3.72;;;25.00;67.10;;;;;;4958613;28;88834;-87
2023/09/09 03:39:44;;;;;;;4.35;3.70;;;24.90;66.90;;;;;;4955236;28;89363;-86
2023/09/09 03:42:10;;;;;;;3.92;3.63;;;24.90;66.90;;;;;;4958043;28;87397;-87
2023/09/09 03:44:35;;;;;;;3.67;3.35;;;24.90;66.70;;;;;;4940574;28;90433;-87
2023/09/09 03:47:01;;;;;;;4.20;3.75;;;24.90;66.60;;;;;;4959929;28;87062;-86
2023/09/09 03:49:27;;;;;;;4.60;3.83;;;24.90;66.70;;;;;;4935732;28;87735;-86
2023/09/09 03:51:52;;;;;;;5.55;3.80;;;24.90;66.90;;;;;;4957880;28;90312;-87
2023/09/09 03:54:18;;;;;;;4.28;3.88;;;24.90;66.90;;;;;;4957463;28;86919;-86
2023/09/09 03:56:43;;;;;;;4.88;3.78;;;24.90;66.70;;;;;;4954162;28;88632;-87
2023/09/09 03:59:09;;;;;;;4.05;3.58;;;24.90;66.80;;;;;;4939293;28;88427;-86
2023/09/09 04:01:36;;;;;;;4.07;3.67;;;24.90;66.70;;;;;;4937750;28;90342;-87
2023/09/09 04:04:02;;;;;;;3.80;3.50;;;24.90;66.60;;;;;;4947532;28;90911;-88
2023/09/09 04:06:28;;;;;;;4.80;4.30;;;24.90;66.90;;;;;;4934913;28;88228;-86
2023/09/09 04:08:56;;;;;;;4.80;3.63;;;24.90;66.70;;;;;;4954062;28;87783;-87
2023/09/09 04:11:22;;;;;;;4.28;3.75;;;24.90;66.90;;;;;;4957789;28;88213;-87
2023/09/09 04:13:48;;;;;;;3.70;3.17;;;24.90;66.70;;;;;;4954439;28;87688;-86
2023/09/09 04:16:14;;;;;;;5.60;3.83;;;24.90;66.90;;;;;;4953715;28;87675;-87
2023/09/09 04:18:40;;;;;;;4.15;3.75;;;24.90;66.90;;;;;;4956413;28;86636;-86
2023/09/09 04:21:06;;;;;;;4.32;3.92;;;24.90;66.80;;;;;;4955562;28;89526;-86
2023/09/09 04:23:32;;;;;;;4.60;3.85;;;24.90;66.70;;;;;;4960875;28;87553;-86
2023/09/09 04:25:57;;;;;;;3.90;3.50;;;24.90;66.70;;;;;;4953970;28;88339;-87
2023/09/09 04:28:26;;;;;;;4.18;3.22;;;24.90;66.80;;;;;;4956279;28;86883;-86
2023/09/09 04:30:52;;;;;;;4.03;3.55;;;24.90;66.80;;;;;;4937178;28;89047;-87
2023/09/09 04:33:17;;;;;;;5.18;3.88;;;24.90;66.80;;;;;;4957242;28;88266;-86
2023/09/09 04:35:43;;;;;;;5.00;3.60;;;24.90;66.70;;;;;;4953844;28;87646;-86
2023/09/09 04:38:09;;;;;;;5.18;4.13;;;24.80;66.60;;;;;;4957086;28;88511;-86
2023/09/09 04:40:37;;;;;;;4.38;3.92;;;24.80;66.80;;;;;;4956601;28;87823;-87
2023/09/09 04:43:03;;;;;;;5.07;4.22;;;24.80;66.70;;;;;;4959922;28;87239;-86
2023/09/09 04:45:28;;;;;;;4.25;3.78;;;24.80;66.70;;;;;;4959120;28;87953;-86
2023/09/09 04:47:54;;;;;;;4.95;3.88;;;24.80;66.70;;;;;;4957545;28;87349;-86
2023/09/09 04:50:20;;;;;;;4.18;3.78;;;24.80;66.70;;;;;;4936836;28;88933;-86
2023/09/09 04:52:47;;;;;;;3.60;3.30;;;24.80;66.50;;;;;;4956413;28;89154;-87
2023/09/09 04:55:13;;;;;;;4.03;3.63;;;24.80;66.70;;;;;;4957296;28;87832;-86
2023/09/09 04:57:40;;;;;;;4.43;3.75;;;24.80;66.70;;;;;;4937516;28;87556;-86
2023/09/09 05:00:07;;;;;;;4.57;4.13;;;24.80;66.70;;;;;;4955315;28;87520;-86
2023/09/09 05:02:34;;;;;;;3.60;3.30;;;24.80;66.60;;;;;;4957470;28;90442;-87
2023/09/09 05:05:03;;;;;;;4.43;3.65;;;24.80;66.80;;;;;;4957450;28;88071;-86
2023/09/09 05:07:31;;;;;;;4.45;3.55;;;24.80;67.30;;;;;;4954547;28;87080;-86
2023/09/09 05:09:56;;;;;;;4.82;3.63;;;24.80;66.70;;;;;;4956280;28;89082;-86
2023/09/09 05:12:22;;;;;;;4.22;3.58;;;24.80;66.50;;;;;;4958087;28;87777;-87
2023/09/09 05:14:48;;;;;;;4.63;3.60;;;24.80;66.60;;;;;;4954045;28;88366;-87
2023/09/09 05:17:13;;;;;;;3.75;3.30;;;24.80;66.80;;;;;;4959855;28;87326;-87
2023/09/09 05:19:39;;;;;;;4.00;3.40;;;24.80;66.70;;;;;;4956167;28;87770;-86
2023/09/09 05:22:04;;;;;;;4.18;3.60;;;24.80;66.70;;;;;;4959073;28;88368;-86
2023/09/09 05:24:30;;;;;;;4.47;4.03;;;24.80;66.80;;;;;;4957299;28;87642;-86
2023/09/09 05:26:56;;;;;;;4.65;3.45;;;24.80;66.80;;;;;;4955417;28;87768;-86
2023/09/09 05:29:21;;;;;;;3.92;3.53;;;24.80;66.90;;;;;;4956922;28;88979;-86
2023/09/09 05:31:47;;;;;;;3.75;3.40;;;24.80;66.80;;;;;;4940549;28;90042;-86
2023/09/09 05:34:12;;;;;;;4.63;3.47;;;24.80;66.90;;;;;;4957488;28;87257;-86
2023/09/09 05:36:38;;;;;;;4.72;3.67;;;24.80;66.60;;;;;;4957086;28;87471;-89
2023/09/09 05:39:04;;;;;;;5.03;3.30;;;24.80;66.70;;;;;;4957897;28;89209;-86
2023/09/09 05:41:30;;;;;;;4.00;3.60;;;24.80;66.70;;;;;;4957275;28;87067;-86
2023/09/09 05:43:55;;;;;;;3.90;3.45;;;24.80;66.60;;;;;;4960486;28;87944;-86
2023/09/09 05:46:22;;;;;;;3.92;3.47;;;24.80;66.50;;;;;;4957442;28;88097;-86
2023/09/09 05:48:48;;;;;;;3.67;3.30;;;24.80;66.50;;;;;;4956763;28;88544;-87
2023/09/09 05:51:13;;;;;;;4.88;3.60;;;24.80;66.40;;;;;;4944781;28;93676;-86
2023/09/09 05:53:41;;;;;;;3.70;3.30;;;24.80;66.40;;;;;;4957664;28;87375;-86
2023/09/09 05:56:07;;;;;;;4.05;3.45;;;24.80;66.40;;;;;;4941690;28;89556;-86
2023/09/09 05:58:35;;;;;;;3.78;3.40;;;24.80;66.20;;;;;;4958421;28;88212;-87
2023/09/09 06:01:01;;;;;;;3.33;3.03;;;24.80;66.50;;;;;;4954811;28;88559;-86
2023/09/09 06:03:27;;;;;;;4.63;3.42;;;24.90;66.40;;;;;;4956873;28;88365;-85
2023/09/09 06:05:53;;;;;;;4.10;3.70;;;24.90;66.20;;;;;;4956101;28;88365;-87
2023/09/09 06:08:19;;;;;;;3.28;2.97;;;24.90;66.20;;;;;;4960542;28;88077;-87
2023/09/09 06:10:44;;;;;;;4.53;3.90;;;24.90;66.30;;;;;;4955117;28;87791;-85
2023/09/09 06:13:10;;;;;;;4.40;3.67;;;24.90;66.30;;;;;;4959132;28;87817;-87
2023/09/09 06:15:36;;;;;;;4.05;3.40;;;24.90;65.90;;;;;;4937494;28;89976;-87
2023/09/09 06:18:01;;;;;;;3.55;3.25;;;24.90;66.10;;;;;;4954252;28;89292;-86
2023/09/09 06:20:27;;;;;;;3.88;3.47;;;24.90;66.10;;;;;;4958230;28;88686;-87
2023/09/09 06:22:53;;;;;;;5.25;3.80;;;24.90;66.10;;;;;;4960350;28;87412;-88
2023/09/09 06:25:20;;;;;;;4.13;3.45;;;24.90;66.30;;;;;;4958202;28;87472;-86
2023/09/09 06:27:45;;;;;;;3.72;3.38;;;24.90;66.30;;;;;;4956798;28;92338;-86
2023/09/09 06:30:11;;;;;;;7.25;3.83;;;24.90;66.40;;;;;;4959245;28;88142;-88
2023/09/09 06:32:37;;;;;;;9.18;6.00;;;25.00;65.00;;;;;;4938946;28;88169;-87
2023/09/09 06:35:03;;;;;;;16.15;6.97;;;25.00;64.20;;;;;;4954990;28;88426;-87
2023/09/09 06:37:29;;;;;;;14.52;7.18;;;24.90;63.70;;;;;;4939882;28;91038;-88
2023/09/09 06:39:55;;;;;;;19.42;8.52;;;24.80;63.70;;;;;;4941834;28;90359;-87
2023/09/09 06:42:21;;;;;;;18.85;9.43;;;24.70;64.10;;;;;;4937754;28;87017;-89
2023/09/09 06:44:47;;;;;;;16.10;8.82;;;24.70;65.20;;;;;;4936160;28;88750;-87
2023/09/09 06:47:12;;;;;;;20.67;9.27;;;24.70;64.80;;;;;;4957811;28;87704;-89
2023/09/09 06:49:38;;;;;;;16.80;10.05;;;24.60;65.20;;;;;;4954173;28;89037;-88
2023/09/09 06:52:04;;;;;;;14.90;9.82;;;24.70;65.10;;;;;;4956700;28;88379;-87
2023/09/09 06:54:30;;;;;;;15.52;10.38;;;24.70;65.80;;;;;;4940126;28;89214;-89
2023/09/09 06:56:55;;;;;;;18.20;11.27;;;24.70;66.40;;;;;;4942054;28;89369;-87
2023/09/09 06:59:21;;;;;;;20.45;11.00;;;24.70;66.50;;;;;;4953024;28;87927;-88
2023/09/09 07:01:47;;;;;;;47.33;11.32;;;24.70;66.40;;;;;;4953524;28;88104;-86
2023/09/09 07:04:13;;;;;;;29.65;12.27;;;24.70;66.30;;;;;;4940610;28;88223;-86
2023/09/09 07:06:38;;;;;;;29.77;12.05;;;24.80;66.20;;;;;;4938240;28;90860;-86
2023/09/09 07:09:04;;;;;;;27.20;12.40;;;24.70;66.00;;;;;;4958801;28;88516;-86
2023/09/09 07:11:30;;;;;;;31.25;12.30;;;24.80;66.50;;;;;;4936246;28;87594;-87
2023/09/09 07:13:55;;;;;;;27.02;12.35;;;24.70;66.70;;;;;;4935974;28;88321;-86
2023/09/09 07:16:22;;;;;;;26.83;11.00;;;24.70;67.00;;;;;;4952810;28;88467;-87
2023/09/09 07:18:48;;;;;;;19.88;12.55;;;24.80;68.10;;;;;;4955864;28;88293;-87
2023/09/09 07:21:13;;;;;;;25.40;12.88;;;24.80;67.70;;;;;;4956522;28;89153;-86
2023/09/09 07:23:39;;;;;;;22.90;13.63;;;24.80;67.70;;;;;;4953555;28;88203;-87
2023/09/09 07:26:05;;;;;;;30.65;14.52;;;24.80;67.90;;;;;;4955852;28;88085;-86
2023/09/09 07:28:31;;;;;;;23.23;14.18;;;24.80;68.00;;;;;;4933528;28;89633;-87
2023/09/09 07:31:02;;;;;;;25.95;14.88;;;24.80;68.20;;;;;;4957427;28;87911;-86
2023/09/09 07:33:27;;;;;;;61.42;22.58;;;24.80;68.70;;;;;;4939717;28;88650;-87
2023/09/09 07:35:53;;;;;;;71.97;28.73;;;24.90;68.60;;;;;;4953007;28;87670;-88
2023/09/09 07:38:19;;;;;;;53.75;25.10;;;24.90;68.80;;;;;;4958242;28;87872;-88
2023/09/09 07:40:45;;;;;;;51.65;23.95;;;24.90;68.90;;;;;;4937186;28;89019;-88
2023/09/09 07:43:10;;;;;;;43.85;22.65;;;25.00;69.50;;;;;;4939046;28;87955;-91
2023/09/09 07:45:36;;;;;;;35.25;21.45;;;24.90;69.60;;;;;;4956083;28;88034;-91
2023/09/09 07:48:02;;;;;;;36.90;19.98;;;24.90;69.50;;;;;;4941152;28;90738;-88
2023/09/09 07:50:27;;;;;;;39.25;22.23;;;25.00;69.80;;;;;;4955717;28;87462;-89
2023/09/09 07:52:53;;;;;;;32.75;22.02;;;24.90;70.20;;;;;;4957401;28;87634;-88
2023/09/09 07:55:19;;;;;;;36.28;23.25;;;24.90;70.60;;;;;;4958217;28;88270;-89
2023/09/09 07:57:44;;;;;;;31.98;22.92;;;24.90;71.20;;;;;;4955837;28;87332;-87
2023/09/09 08:00:10;;;;;;;29.33;21.20;;;24.90;71.40;;;;;;4955535;28;86880;-91
2023/09/09 08:02:36;;;;;;;31.23;19.13;;;24.90;71.10;;;;;;4959372;28;88053;-88
2023/09/09 08:05:03;;;;;;;29.77;19.05;;;24.90;71.10;;;;;;4941477;28;91865;-90
2023/09/09 08:07:29;;;;;;;30.00;17.92;;;25.00;70.60;;;;;;4958401;28;91124;-90
2023/09/09 08:09:54;;;;;;;27.50;17.38;;;25.00;69.70;;;;;;4941297;28;87707;-89
2023/09/09 08:12:20;;;;;;;31.00;17.45;;;25.00;70.30;;;;;;4960315;28;87703;-88
2023/09/09 08:14:47;;;;;;;30.42;17.15;;;25.10;69.90;;;;;;4940382;28;90953;-89
2023/09/09 08:17:13;;;;;;;25.23;17.50;;;25.10;70.00;;;;;;4944697;28;90024;-89
2023/09/09 08:19:38;;;;;;;24.13;15.45;;;25.10;69.90;;;;;;4959604;28;91319;-89
2023/09/09 08:22:04;;;;;;;24.17;16.55;;;25.10;69.50;;;;;;4943518;28;89112;-90
2023/09/09 08:24:30;;;;;;;21.42;13.95;;;25.10;69.80;;;;;;4960355;28;88456;-89
2023/09/09 08:26:55;;;;;;;26.10;13.77;;;25.10;69.50;;;;;;4958848;28;87767;-88
2023/09/09 08:29:21;;;;;;;22.73;12.85;;;25.10;69.20;;;;;;4960299;28;87959;-88
2023/09/09 08:31:49;;;;;;;19.13;13.07;;;25.10;69.00;;;;;;4958479;28;87433;-86
2023/09/09 08:34:15;;;;;;;21.90;13.17;;;25.10;68.80;;;;;;4963109;28;87933;-88
2023/09/09 08:36:40;;;;;;;20.23;13.23;;;25.20;69.30;;;;;;4959945;28;87290;-88
2023/09/09 08:39:06;;;;;;;18.65;10.65;;;25.20;69.30;;;;;;4943494;28;87420;-87
2023/09/09 08:41:58;;;;;;;23.73;11.43;;;25.20;68.90;;;;;;4939619;28;89652;-87
2023/09/09 08:44:36;;;;;;;19.02;11.23;;;25.20;69.00;;;;;;4958961;28;88070;-88
2023/09/09 08:47:02;;;;;;;20.20;10.63;;;25.10;68.90;;;;;;4959106;28;91649;-90
2023/09/09 08:49:33;;;;;;;17.95;11.35;;;25.10;68.60;;;;;;4959180;28;87948;-87
2023/09/09 08:52:03;;;;;;;17.50;11.57;;;25.10;68.90;;;;;;4949676;28;88462;-88
2023/09/09 08:54:29;;;;;;;16.17;11.23;;;25.10;69.10;;;;;;4957378;28;89168;-88
2023/09/09 08:56:57;;;;;;;16.73;10.65;;;25.10;68.90;;;;;;4955461;28;90515;-88
2023/09/09 08:59:24;;;;;;;15.90;9.27;;;25.10;68.80;;;;;;4948403;28;88078;-88
2023/09/09 09:01:51;;;;;;;15.32;9.82;;;25.10;68.80;;;;;;4940946;28;89619;-89
2023/09/09 09:04:17;;;;;;;20.65;10.13;;;25.10;69.30;;;;;;4958651;28;88577;-89
2023/09/09 09:06:48;;;;;;;14.43;8.82;;;25.20;69.00;;;;;;4937975;28;90200;-89
2023/09/09 09:09:16;;;;;;;16.67;9.32;;;25.10;69.50;;;;;;4954731;28;87581;-89
2023/09/09 09:11:43;;;;;;;15.65;9.13;;;25.10;70.00;;;;;;4962189;28;88914;-89
2023/09/09 09:14:08;;;;;;;16.80;8.75;;;25.10;69.10;;;;;;4957429;28;93405;-90
2023/09/09 09:16:41;;;;;;;16.60;8.70;;;25.20;69.40;;;;;;4947590;28;88825;-89
2023/09/09 09:19:18;;;;;;;15.27;8.73;;;25.20;69.70;;;;;;4961876;28;88684;-90
2023/09/09 09:21:44;;;;;;;17.80;8.75;;;25.20;69.40;;;;;;4949210;28;89957;-91
2023/09/09 09:24:09;;;;;;;104.35;32.03;;;25.20;69.70;;;;;;4943063;28;90085;-89
2023/09/09 09:26:35;;;;;;;56.38;17.88;;;25.20;70.30;;;;;;4956749;28;88378;-89
2023/09/09 09:29:06;;;;;;;58.42;19.98;;;25.20;70.40;;;;;;4941113;28;87607;-91
2023/09/09 09:31:32;;;;;;;50.45;18.45;;;25.20;70.00;;;;;;4957173;28;87701;-88
2023/09/09 09:33:59;;;;;;;47.78;18.73;;;25.20;69.50;;;;;;4959317;28;88015;-91
2023/09/09 09:36:26;;;;;;;51.03;18.10;;;25.20;69.80;;;;;;4939600;28;89104;-88
2023/09/09 09:38:53;;;;;;;44.03;16.05;;;25.20;69.80;;;;;;4958809;28;87760;-89
2023/09/09 09:41:21;;;;;;;41.08;16.55;;;25.20;69.70;;;;;;4955838;28;89462;-91
2023/09/09 09:43:47;;;;;;;39.80;15.70;;;25.20;70.00;;;;;;4955826;28;89164;-91
2023/09/09 09:46:20;;;;;;;41.80;14.18;;;25.30;69.80;;;;;;4960223;28;88594;-89
2023/09/09 09:48:47;;;;;;;32.95;13.82;;;25.20;70.00;;;;;;4955378;28;88732;-89
2023/09/09 09:51:13;;;;;;;36.55;13.68;;;25.30;70.00;;;;;;4940201;28;88942;-88
2023/09/09 09:53:48;;;;;;;32.70;13.52;;;25.30;69.70;;;;;;4957798;28;88123;-89
2023/09/09 09:56:17;;;;;;;33.05;13.65;;;25.30;69.50;;;;;;4953237;28;90505;-89
2023/09/09 09:58:45;;;;;;;30.10;13.98;;;25.20;69.40;;;;;;4940332;28;87452;-90
2023/09/09 10:01:11;;;;;;;31.98;12.93;;;25.30;69.50;;;;;;4941716;28;89025;-89
2023/09/09 10:03:57;;;;;;;26.75;12.95;;;25.30;69.40;;;;;;4947532;28;91052;-90
2023/09/09 10:06:28;;;;;;;30.75;13.30;;;25.30;69.80;;;;;;4939126;28;90017;-90
2023/09/09 10:09:19;;;;;;;27.40;14.02;;;25.30;70.50;;;;;;4947840;28;88511;-90
2023/09/09 10:12:15;;;;;;;33.03;13.20;;;25.20;70.90;;;;;;4939967;28;89443;-90
2023/09/09 10:14:41;;;;;;;22.30;12.45;;;25.20;71.10;;;;;;4957554;28;87741;-89
2023/09/09 10:17:08;;;;;;;24.38;12.10;;;25.30;71.50;;;;;;4937312;28;90565;-89
2023/09/09 10:19:37;;;;;;;37.85;13.82;;;25.30;71.60;;;;;;4938381;28;88279;-90
2023/09/09 10:22:07;;;;;;;23.83;12.38;;;25.30;71.60;;;;;;4956944;28;87577;-89
2023/09/09 10:24:38;;;;;;;24.98;11.88;;;25.30;71.70;;;;;;4942621;28;89647;-89
2023/09/09 10:27:05;;;;;;;26.70;12.02;;;25.30;72.10;;;;;;4951006;28;89074;-88
2023/09/09 10:29:34;;;;;;;27.20;12.73;;;25.30;71.80;;;;;;4938990;28;87659;-88
2023/09/09 10:32:05;;;;;;;23.02;11.73;;;25.30;71.60;;;;;;4937248;28;88220;-87
2023/09/09 10:34:33;;;;;;;28.83;11.57;;;25.30;71.60;;;;;;4957200;28;89155;-87
2023/09/09 10:37:00;;;;;;;28.40;12.33;;;25.30;71.90;;;;;;4953964;28;91437;-88
2023/09/09 10:39:27;;;;;;;27.13;11.02;;;25.30;71.40;;;;;;4938896;28;87420;-88
2023/09/09 10:41:55;;;;;;;25.15;10.95;;;25.30;71.30;;;;;;4957385;28;87636;-88
2023/09/09 10:44:20;;;;;;;24.92;10.77;;;25.30;71.60;;;;;;4935242;28;88095;-87
2023/09/09 10:46:46;;;;;;;24.73;12.85;;;25.30;71.40;;;;;;4936649;28;89845;-87
2023/09/09 10:49:17;;;;;;;19.48;10.95;;;25.40;72.00;;;;;;4957270;28;87769;-87
2023/09/09 10:51:49;;;;;;;22.20;10.98;;;25.40;71.60;;;;;;4940110;28;88792;-87
2023/09/09 10:54:17;;;;;;;22.10;11.93;;;25.40;71.50;;;;;;4954272;28;88476;-88
2023/09/09 10:56:47;;;;;;;20.48;10.63;;;25.40;71.50;;;;;;4935888;28;89186;-88
2023/09/09 10:59:21;;;;;;;24.77;11.73;;;25.40;71.60;;;;;;4953237;28;88889;-87
2023/09/09 11:02:07;;;;;;;23.52;12.10;;;25.40;72.40;;;;;;4957418;28;87516;-89
2023/09/09 11:04:35;;;;;;;27.00;12.75;;;25.40;71.60;;;;;;4957695;28;88809;-87
2023/09/09 11:07:13;;;;;;;23.63;11.57;;;25.40;72.00;;;;;;4955594;28;87742;-89
2023/09/09 11:09:49;;;;;;;23.67;10.15;;;25.40;72.60;;;;;;4937751;28;94330;-88
2023/09/09 11:12:16;;;;;;;21.75;11.50;;;25.40;72.00;;;;;;4958051;28;87235;-86
2023/09/09 11:19:53;;;;;;;20.98;11.13;;;25.60;72.80;;;;;;4898515;22;87519;-85
2023/09/09 11:22:19;;;;;;;23.42;10.75;;;25.60;72.20;;;;;;4891413;28;88390;-84
2023/09/09 11:24:45;;;;;;;19.63;11.38;;;25.50;72.00;;;;;;4897683;28;88733;-85
2023/09/09 11:27:11;;;;;;;19.83;11.07;;;25.60;72.40;;;;;;4890593;28;91192;-84
2023/09/09 11:29:37;;;;;;;18.50;9.82;;;25.60;72.00;;;;;;4889519;28;88075;-86
2023/09/09 11:32:07;;;;;;;17.42;10.23;;;25.60;72.10;;;;;;4891094;28;87709;-83
2023/09/09 11:34:33;;;;;;;15.15;9.65;;;25.60;71.10;;;;;;4892747;28;88374;-82
2023/09/09 11:37:03;;;;;;;15.82;10.15;;;25.60;71.20;;;;;;4890137;28;88503;-86
2023/09/09 11:39:29;;;;;;;16.98;9.48;;;25.60;71.00;;;;;;4892176;28;87234;-85
2023/09/09 11:41:55;;;;;;;20.33;9.27;;;25.60;70.90;;;;;;4900144;28;86891;-86
2023/09/09 11:44:20;;;;;;;15.48;10.02;;;25.60;71.10;;;;;;4895012;28;88006;-86
2023/09/09 11:46:48;;;;;;;14.95;9.50;;;25.60;71.00;;;;;;4896540;28;88001;-83
2023/09/09 11:49:16;;;;;;;14.65;9.10;;;25.60;71.00;;;;;;4897467;28;89349;-83
2023/09/09 11:51:42;;;;;;;18.57;9.10;;;25.60;71.10;;;;;;4896748;28;87560;-86
2023/09/09 11:54:10;;;;;;;16.15;9.02;;;25.60;71.20;;;;;;4895589;28;87669;-85
2023/09/09 11:56:36;;;;;;;19.00;9.75;;;25.60;71.00;;;;;;4897388;28;87757;-85
2023/09/09 11:59:10;;;;;;;16.52;9.70;;;25.60;70.90;;;;;;4895395;28;87445;-85
2023/09/09 12:01:46;;;;;;;17.27;9.65;;;25.60;71.00;;;;;;4895197;28;87631;-86
2023/09/09 12:04:13;;;;;;;14.75;9.35;;;25.60;70.90;;;;;;4897942;28;88975;-83
2023/09/09 12:06:41;;;;;;;15.68;9.93;;;25.60;71.00;;;;;;4881901;28;89961;-85
2023/09/09 12:09:08;;;;;;;20.02;9.65;;;25.60;70.90;;;;;;4895150;28;88103;-86
2023/09/09 12:11:35;;;;;;;17.50;9.82;;;25.70;71.30;;;;;;4882548;28;88155;-82
2023/09/09 12:14:01;;;;;;;14.82;9.02;;;25.90;71.10;;;;;;4897373;28;88559;-85
2023/09/09 12:16:31;;;;;;;16.48;9.05;;;26.00;71.20;;;;;;4898681;28;88789;-84
2023/09/09 12:18:57;;;;;;;18.48;9.45;;;26.10;70.80;;;;;;4899635;28;88801;-85
2023/09/09 12:21:23;;;;;;;12.98;8.48;;;26.20;70.60;;;;;;4883659;28;89978;-87
2023/09/09 12:23:55;;;;;;;11.35;8.27;;;26.20;70.70;;;;;;4879752;28;91226;-84
2023/09/09 12:26:21;;;;;;;16.65;9.48;;;26.20;70.60;;;;;;4890771;28;88353;-83
2023/09/09 12:29:04;;;;;;;18.88;9.57;;;26.30;70.40;;;;;;4889561;28;88293;-85
2023/09/09 12:31:48;;;;;;;14.43;8.93;;;26.30;70.00;;;;;;4896384;28;86621;-83
2023/09/09 12:34:19;;;;;;;17.33;8.40;;;26.30;70.30;;;;;;4884100;28;90593;-84
2023/09/09 12:36:46;;;;;;;17.40;8.43;;;26.30;70.30;;;;;;4893025;28;92183;-83
2023/09/09 12:39:23;;;;;;;19.05;8.82;;;26.30;70.10;;;;;;4878435;28;88472;-86
2023/09/09 12:42:08;;;;;;;17.48;8.63;;;26.30;70.20;;;;;;4880595;28;89774;-84